sensor_id;sensor_type;location;lat;lon;timestamp;P1;durP1;ratioP1;P2;durP2;ratioP2
16731;SDS011;8484;50.904;9.192;2023-05-07T00:00:34;68.03;;;63.83;;
16731;SDS011;8484;50.904;9.192;2023-05-07T00:03:02;65.00;;;61.13;;
16731;SDS011;8484;50.904;9.192;2023-05-07T00:05:30;65.80;;;61.80;;
16731;SDS011;8484;50.904;9.192;2023-05-07T00:07:57;64.47;;;60.57;;
16731;SDS011;8484;50.904;9.192;2023-05-07T00:10:24;64.07;;;60.17;;
16731;SDS011;8484;50.904;9.192;2023-05-07T00:12:51;62.10;;;58.30;;
16731;SDS011;8484;50.904;9.192;2023-05-07T00:15:17;61.20;;;57.50;;
16731;SDS011;8484;50.904;9.192;2023-05-07T00:17:44;61.23;;;57.53;;
16731;SDS011;8484;50.904;9.192;2023-05-07T00:20:13;61.83;;;58.10;;
16731;SDS011;8484;50.904;9.192;2023-05-07T00:22:39;65.57;;;61.50;;
16731;SDS011;8484;50.904;9.192;2023-05-07T00:25:06;61.63;;;57.73;;
16731;SDS011;8484;50.904;9.192;2023-05-07T00:27:35;62.47;;;58.77;;
16731;SDS011;8484;50.904;9.192;2023-05-07T00:30:02;59.27;;;55.67;;
16731;SDS011;8484;50.904;9.192;2023-05-07T00:32:29;61.23;;;57.53;;
16731;SDS011;8484;50.904;9.192;2023-05-07T00:34:55;57.33;;;53.87;;
16731;SDS011;8484;50.904;9.192;2023-05-07T00:37:23;60.80;;;57.10;;
16731;SDS011;8484;50.904;9.192;2023-05-07T00:39:50;61.60;;;57.83;;
16731;SDS011;8484;50.904;9.192;2023-05-07T00:42:17;62.47;;;58.67;;
16731;SDS011;8484;50.904;9.192;2023-05-07T00:44:44;62.07;;;58.33;;
16731;SDS011;8484;50.904;9.192;2023-05-07T00:47:11;60.30;;;56.50;;
16731;SDS011;8484;50.904;9.192;2023-05-07T00:49:39;59.70;;;56.00;;
16731;SDS011;8484;50.904;9.192;2023-05-07T00:52:09;61.27;;;57.43;;
16731;SDS011;8484;50.904;9.192;2023-05-07T00:54:38;60.67;;;56.87;;
16731;SDS011;8484;50.904;9.192;2023-05-07T00:57:07;58.33;;;54.63;;
16731;SDS011;8484;50.904;9.192;2023-05-07T00:59:36;60.53;;;56.80;;
16731;SDS011;8484;50.904;9.192;2023-05-07T01:02:03;61.10;;;57.40;;
16731;SDS011;8484;50.904;9.192;2023-05-07T01:04:30;63.43;;;59.53;;
16731;SDS011;8484;50.904;9.192;2023-05-07T01:06:56;62.10;;;58.30;;
16731;SDS011;8484;50.904;9.192;2023-05-07T01:09:26;59.03;;;55.43;;
16731;SDS011;8484;50.904;9.192;2023-05-07T01:11:56;59.83;;;56.13;;
16731;SDS011;8484;50.904;9.192;2023-05-07T01:14:24;59.40;;;55.73;;
16731;SDS011;8484;50.904;9.192;2023-05-07T01:16:52;56.53;;;53.03;;
16731;SDS011;8484;50.904;9.192;2023-05-07T01:19:19;58.83;;;55.23;;
16731;SDS011;8484;50.904;9.192;2023-05-07T01:21:47;58.67;;;54.97;;
16731;SDS011;8484;50.904;9.192;2023-05-07T01:24:16;59.13;;;55.23;;
16731;SDS011;8484;50.904;9.192;2023-05-07T01:26:44;58.20;;;54.57;;
16731;SDS011;8484;50.904;9.192;2023-05-07T01:29:10;60.83;;;56.93;;
16731;SDS011;8484;50.904;9.192;2023-05-07T01:31:37;59.23;;;55.53;;
16731;SDS011;8484;50.904;9.192;2023-05-07T01:36:57;62.13;;;58.13;;
16731;SDS011;8484;50.904;9.192;2023-05-07T01:39:27;59.87;;;55.90;;
16731;SDS011;8484;50.904;9.192;2023-05-07T01:41:55;61.13;;;56.97;;
16731;SDS011;8484;50.904;9.192;2023-05-07T01:44:22;63.27;;;59.20;;
16731;SDS011;8484;50.904;9.192;2023-05-07T01:46:49;66.13;;;61.77;;
16731;SDS011;8484;50.904;9.192;2023-05-07T01:49:16;64.00;;;59.80;;
16731;SDS011;8484;50.904;9.192;2023-05-07T01:51:44;64.93;;;60.83;;
16731;SDS011;8484;50.904;9.192;2023-05-07T01:54:10;63.07;;;59.07;;
16731;SDS011;8484;50.904;9.192;2023-05-07T01:56:39;61.00;;;57.10;;
16731;SDS011;8484;50.904;9.192;2023-05-07T01:59:05;60.63;;;56.73;;
16731;SDS011;8484;50.904;9.192;2023-05-07T02:01:32;61.73;;;57.63;;
16731;SDS011;8484;50.904;9.192;2023-05-07T02:03:59;60.83;;;56.93;;
16731;SDS011;8484;50.904;9.192;2023-05-07T02:06:26;62.90;;;58.47;;
16731;SDS011;8484;50.904;9.192;2023-05-07T02:08:53;61.80;;;57.83;;
16731;SDS011;8484;50.904;9.192;2023-05-07T02:11:19;61.30;;;57.40;;
16731;SDS011;8484;50.904;9.192;2023-05-07T02:13:48;59.57;;;55.67;;
16731;SDS011;8484;50.904;9.192;2023-05-07T02:16:14;58.50;;;54.70;;
16731;SDS011;8484;50.904;9.192;2023-05-07T02:18:41;61.13;;;57.17;;
16731;SDS011;8484;50.904;9.192;2023-05-07T02:21:08;61.40;;;57.20;;
16731;SDS011;8484;50.904;9.192;2023-05-07T02:23:35;60.50;;;56.47;;
16731;SDS011;8484;50.904;9.192;2023-05-07T02:26:03;62.30;;;58.30;;
16731;SDS011;8484;50.904;9.192;2023-05-07T02:28:30;61.83;;;57.73;;
16731;SDS011;8484;50.904;9.192;2023-05-07T02:30:58;60.93;;;57.03;;
16731;SDS011;8484;50.904;9.192;2023-05-07T02:33:25;61.63;;;57.60;;
16731;SDS011;8484;50.904;9.192;2023-05-07T02:35:52;63.10;;;59.00;;
16731;SDS011;8484;50.904;9.192;2023-05-07T02:38:19;62.13;;;57.63;;
16731;SDS011;8484;50.904;9.192;2023-05-07T02:40:46;61.03;;;57.07;;
16731;SDS011;8484;50.904;9.192;2023-05-07T02:43:13;62.03;;;57.93;;
16731;SDS011;8484;50.904;9.192;2023-05-07T02:45:39;61.87;;;57.87;;
16731;SDS011;8484;50.904;9.192;2023-05-07T02:48:09;62.50;;;58.40;;
16731;SDS011;8484;50.904;9.192;2023-05-07T02:50:36;66.00;;;61.70;;
16731;SDS011;8484;50.904;9.192;2023-05-07T02:53:03;67.23;;;62.97;;
16731;SDS011;8484;50.904;9.192;2023-05-07T02:55:30;65.50;;;61.10;;
16731;SDS011;8484;50.904;9.192;2023-05-07T02:57:57;65.87;;;61.47;;
16731;SDS011;8484;50.904;9.192;2023-05-07T03:00:24;66.30;;;61.90;;
16731;SDS011;8484;50.904;9.192;2023-05-07T03:02:50;66.50;;;61.80;;
16731;SDS011;8484;50.904;9.192;2023-05-07T03:05:19;65.10;;;60.80;;
16731;SDS011;8484;50.904;9.192;2023-05-07T03:07:46;66.87;;;62.40;;
16731;SDS011;8484;50.904;9.192;2023-05-07T03:10:13;64.43;;;60.17;;
16731;SDS011;8484;50.904;9.192;2023-05-07T03:12:40;67.70;;;63.23;;
16731;SDS011;8484;50.904;9.192;2023-05-07T03:15:07;69.10;;;64.50;;
16731;SDS011;8484;50.904;9.192;2023-05-07T03:17:35;69.77;;;64.90;;
16731;SDS011;8484;50.904;9.192;2023-05-07T03:20:02;71.67;;;66.83;;
16731;SDS011;8484;50.904;9.192;2023-05-07T03:22:31;73.90;;;69.03;;
16731;SDS011;8484;50.904;9.192;2023-05-07T03:24:57;70.80;;;66.00;;
16731;SDS011;8484;50.904;9.192;2023-05-07T03:27:24;70.60;;;65.97;;
16731;SDS011;8484;50.904;9.192;2023-05-07T03:29:52;71.23;;;66.53;;
16731;SDS011;8484;50.904;9.192;2023-05-07T03:32:19;72.90;;;67.80;;
16731;SDS011;8484;50.904;9.192;2023-05-07T03:34:45;72.90;;;68.00;;
16731;SDS011;8484;50.904;9.192;2023-05-07T03:37:12;71.13;;;66.23;;
16731;SDS011;8484;50.904;9.192;2023-05-07T03:39:40;74.90;;;69.50;;
16731;SDS011;8484;50.904;9.192;2023-05-07T03:42:07;75.93;;;70.93;;
16731;SDS011;8484;50.904;9.192;2023-05-07T03:44:34;76.23;;;71.07;;
16731;SDS011;8484;50.904;9.192;2023-05-07T03:47:02;77.57;;;72.30;;
16731;SDS011;8484;50.904;9.192;2023-05-07T03:49:28;77.73;;;72.57;;
16731;SDS011;8484;50.904;9.192;2023-05-07T03:51:55;79.77;;;74.17;;
16731;SDS011;8484;50.904;9.192;2023-05-07T03:54:22;78.73;;;73.40;;
16731;SDS011;8484;50.904;9.192;2023-05-07T03:56:50;76.60;;;71.40;;
16731;SDS011;8484;50.904;9.192;2023-05-07T03:59:17;79.40;;;74.00;;
16731;SDS011;8484;50.904;9.192;2023-05-07T04:01:44;82.20;;;76.60;;
16731;SDS011;8484;50.904;9.192;2023-05-07T04:04:11;79.00;;;73.80;;
16731;SDS011;8484;50.904;9.192;2023-05-07T04:06:37;80.83;;;75.13;;
16731;SDS011;8484;50.904;9.192;2023-05-07T04:09:04;80.13;;;74.70;;
16731;SDS011;8484;50.904;9.192;2023-05-07T04:11:31;77.43;;;72.07;;
16731;SDS011;8484;50.904;9.192;2023-05-07T04:13:59;79.30;;;73.97;;
16731;SDS011;8484;50.904;9.192;2023-05-07T04:16:28;79.90;;;74.50;;
16731;SDS011;8484;50.904;9.192;2023-05-07T04:18:55;78.67;;;73.23;;
16731;SDS011;8484;50.904;9.192;2023-05-07T04:21:22;77.83;;;72.57;;
16731;SDS011;8484;50.904;9.192;2023-05-07T04:23:49;80.33;;;74.83;;
16731;SDS011;8484;50.904;9.192;2023-05-07T04:26:15;80.80;;;75.23;;
16731;SDS011;8484;50.904;9.192;2023-05-07T04:28:42;78.13;;;72.80;;
16731;SDS011;8484;50.904;9.192;2023-05-07T04:31:11;76.30;;;70.90;;
16731;SDS011;8484;50.904;9.192;2023-05-07T04:33:37;73.73;;;68.63;;
16731;SDS011;8484;50.904;9.192;2023-05-07T04:36:04;73.37;;;68.30;;
16731;SDS011;8484;50.904;9.192;2023-05-07T04:38:31;73.17;;;68.07;;
16731;SDS011;8484;50.904;9.192;2023-05-07T04:41:02;73.13;;;68.13;;
16731;SDS011;8484;50.904;9.192;2023-05-07T04:43:30;69.77;;;64.93;;
16731;SDS011;8484;50.904;9.192;2023-05-07T04:45:57;70.30;;;65.50;;
16731;SDS011;8484;50.904;9.192;2023-05-07T04:48:27;68.90;;;64.13;;
16731;SDS011;8484;50.904;9.192;2023-05-07T04:50:54;69.13;;;64.33;;
16731;SDS011;8484;50.904;9.192;2023-05-07T04:53:20;70.80;;;65.97;;
16731;SDS011;8484;50.904;9.192;2023-05-07T04:55:49;68.87;;;64.07;;
16731;SDS011;8484;50.904;9.192;2023-05-07T04:58:20;66.93;;;62.20;;
16731;SDS011;8484;50.904;9.192;2023-05-07T05:00:47;65.43;;;60.90;;
16731;SDS011;8484;50.904;9.192;2023-05-07T05:03:14;65.90;;;61.37;;
16731;SDS011;8484;50.904;9.192;2023-05-07T05:05:43;63.63;;;59.13;;
16731;SDS011;8484;50.904;9.192;2023-05-07T05:08:09;62.80;;;58.50;;
16731;SDS011;8484;50.904;9.192;2023-05-07T05:10:36;63.87;;;59.47;;
16731;SDS011;8484;50.904;9.192;2023-05-07T05:13:03;64.67;;;60.10;;
16731;SDS011;8484;50.904;9.192;2023-05-07T05:15:30;62.03;;;57.73;;
16731;SDS011;8484;50.904;9.192;2023-05-07T05:17:56;60.93;;;56.63;;
16731;SDS011;8484;50.904;9.192;2023-05-07T05:20:23;58.53;;;54.53;;
16731;SDS011;8484;50.904;9.192;2023-05-07T05:22:51;61.07;;;56.80;;
16731;SDS011;8484;50.904;9.192;2023-05-07T05:25:18;59.77;;;55.47;;
16731;SDS011;8484;50.904;9.192;2023-05-07T05:27:45;58.83;;;54.90;;
16731;SDS011;8484;50.904;9.192;2023-05-07T05:30:12;58.70;;;54.57;;
16731;SDS011;8484;50.904;9.192;2023-05-07T05:32:39;58.57;;;54.37;;
16731;SDS011;8484;50.904;9.192;2023-05-07T05:35:06;57.87;;;53.97;;
16731;SDS011;8484;50.904;9.192;2023-05-07T05:37:34;54.70;;;50.90;;
16731;SDS011;8484;50.904;9.192;2023-05-07T05:40:02;56.50;;;52.53;;
16731;SDS011;8484;50.904;9.192;2023-05-07T05:42:29;55.30;;;51.20;;
16731;SDS011;8484;50.904;9.192;2023-05-07T05:44:56;55.20;;;51.40;;
16731;SDS011;8484;50.904;9.192;2023-05-07T05:47:23;53.03;;;49.33;;
16731;SDS011;8484;50.904;9.192;2023-05-07T05:49:49;53.10;;;49.50;;
16731;SDS011;8484;50.904;9.192;2023-05-07T05:52:16;52.53;;;48.93;;
16731;SDS011;8484;50.904;9.192;2023-05-07T05:54:43;51.63;;;48.10;;
16731;SDS011;8484;50.904;9.192;2023-05-07T05:57:11;52.37;;;48.77;;
16731;SDS011;8484;50.904;9.192;2023-05-07T05:59:38;52.30;;;48.70;;
16731;SDS011;8484;50.904;9.192;2023-05-07T06:02:05;51.13;;;47.53;;
16731;SDS011;8484;50.904;9.192;2023-05-07T06:04:33;48.70;;;45.33;;
16731;SDS011;8484;50.904;9.192;2023-05-07T06:06:59;47.77;;;44.47;;
16731;SDS011;8484;50.904;9.192;2023-05-07T06:09:27;48.43;;;45.13;;
16731;SDS011;8484;50.904;9.192;2023-05-07T06:11:54;47.47;;;44.27;;
16731;SDS011;8484;50.904;9.192;2023-05-07T06:14:22;48.03;;;44.73;;
16731;SDS011;8484;50.904;9.192;2023-05-07T06:16:49;47.00;;;43.80;;
16731;SDS011;8484;50.904;9.192;2023-05-07T06:19:16;45.93;;;42.57;;
16731;SDS011;8484;50.904;9.192;2023-05-07T06:21:48;44.37;;;41.27;;
16731;SDS011;8484;50.904;9.192;2023-05-07T06:24:15;42.63;;;39.73;;
16731;SDS011;8484;50.904;9.192;2023-05-07T06:26:41;43.17;;;40.17;;
16731;SDS011;8484;50.904;9.192;2023-05-07T06:29:08;43.53;;;40.33;;
16731;SDS011;8484;50.904;9.192;2023-05-07T06:31:37;41.07;;;38.17;;
16731;SDS011;8484;50.904;9.192;2023-05-07T06:34:03;40.00;;;37.30;;
16731;SDS011;8484;50.904;9.192;2023-05-07T06:36:30;41.40;;;38.47;;
16731;SDS011;8484;50.904;9.192;2023-05-07T06:38:57;39.30;;;36.50;;
16731;SDS011;8484;50.904;9.192;2023-05-07T06:41:24;38.57;;;35.77;;
16731;SDS011;8484;50.904;9.192;2023-05-07T06:43:51;38.23;;;35.63;;
16731;SDS011;8484;50.904;9.192;2023-05-07T06:46:18;36.10;;;33.70;;
16731;SDS011;8484;50.904;9.192;2023-05-07T06:48:46;35.83;;;33.33;;
16731;SDS011;8484;50.904;9.192;2023-05-07T06:51:13;36.83;;;34.23;;
16731;SDS011;8484;50.904;9.192;2023-05-07T06:53:40;35.30;;;32.97;;
16731;SDS011;8484;50.904;9.192;2023-05-07T06:56:07;37.10;;;34.60;;
16731;SDS011;8484;50.904;9.192;2023-05-07T06:58:34;37.17;;;34.57;;
16731;SDS011;8484;50.904;9.192;2023-05-07T07:01:02;35.43;;;33.07;;
16731;SDS011;8484;50.904;9.192;2023-05-07T07:03:31;37.40;;;34.80;;
16731;SDS011;8484;50.904;9.192;2023-05-07T07:06:00;37.20;;;34.73;;
16731;SDS011;8484;50.904;9.192;2023-05-07T07:08:28;36.47;;;34.03;;
16731;SDS011;8484;50.904;9.192;2023-05-07T07:10:55;33.93;;;31.67;;
16731;SDS011;8484;50.904;9.192;2023-05-07T07:13:22;35.43;;;33.03;;
16731;SDS011;8484;50.904;9.192;2023-05-07T07:15:51;33.73;;;31.43;;
16731;SDS011;8484;50.904;9.192;2023-05-07T07:18:18;32.57;;;30.13;;
16731;SDS011;8484;50.904;9.192;2023-05-07T07:20:45;33.50;;;31.27;;
16731;SDS011;8484;50.904;9.192;2023-05-07T07:23:14;35.47;;;33.07;;
16731;SDS011;8484;50.904;9.192;2023-05-07T07:25:41;34.27;;;31.97;;
16731;SDS011;8484;50.904;9.192;2023-05-07T07:28:08;32.73;;;30.53;;
16731;SDS011;8484;50.904;9.192;2023-05-07T07:30:35;32.50;;;30.30;;
16731;SDS011;8484;50.904;9.192;2023-05-07T07:33:02;32.03;;;29.93;;
16731;SDS011;8484;50.904;9.192;2023-05-07T07:35:30;31.70;;;29.50;;
16731;SDS011;8484;50.904;9.192;2023-05-07T07:37:57;32.70;;;30.30;;
16731;SDS011;8484;50.904;9.192;2023-05-07T07:40:26;29.40;;;27.50;;
16731;SDS011;8484;50.904;9.192;2023-05-07T07:42:53;31.43;;;29.33;;
16731;SDS011;8484;50.904;9.192;2023-05-07T07:45:20;31.30;;;29.03;;
16731;SDS011;8484;50.904;9.192;2023-05-07T07:47:47;30.40;;;28.30;;
16731;SDS011;8484;50.904;9.192;2023-05-07T07:50:14;28.57;;;26.67;;
16731;SDS011;8484;50.904;9.192;2023-05-07T07:52:41;27.67;;;25.83;;
16731;SDS011;8484;50.904;9.192;2023-05-07T07:55:08;29.77;;;27.77;;
16731;SDS011;8484;50.904;9.192;2023-05-07T07:57:36;29.63;;;27.63;;
16731;SDS011;8484;50.904;9.192;2023-05-07T08:00:04;26.87;;;25.07;;
16731;SDS011;8484;50.904;9.192;2023-05-07T08:02:32;27.30;;;25.50;;
16731;SDS011;8484;50.904;9.192;2023-05-07T08:04:59;26.60;;;24.80;;
16731;SDS011;8484;50.904;9.192;2023-05-07T08:07:26;25.17;;;23.50;;
16731;SDS011;8484;50.904;9.192;2023-05-07T08:09:53;24.57;;;22.87;;
16731;SDS011;8484;50.904;9.192;2023-05-07T08:12:20;24.43;;;22.73;;
16731;SDS011;8484;50.904;9.192;2023-05-07T08:14:48;24.33;;;22.63;;
16731;SDS011;8484;50.904;9.192;2023-05-07T08:17:15;23.57;;;21.97;;
16731;SDS011;8484;50.904;9.192;2023-05-07T08:19:42;24.20;;;22.40;;
16731;SDS011;8484;50.904;9.192;2023-05-07T08:22:09;24.03;;;22.27;;
16731;SDS011;8484;50.904;9.192;2023-05-07T08:24:37;23.20;;;21.60;;
16731;SDS011;8484;50.904;9.192;2023-05-07T08:27:03;23.10;;;21.47;;
16731;SDS011;8484;50.904;9.192;2023-05-07T08:29:30;20.77;;;19.27;;
16731;SDS011;8484;50.904;9.192;2023-05-07T08:31:59;22.33;;;20.67;;
16731;SDS011;8484;50.904;9.192;2023-05-07T08:34:26;23.83;;;22.23;;
16731;SDS011;8484;50.904;9.192;2023-05-07T08:36:53;24.70;;;22.90;;
16731;SDS011;8484;50.904;9.192;2023-05-07T08:39:20;23.97;;;22.17;;
16731;SDS011;8484;50.904;9.192;2023-05-07T08:41:47;23.83;;;22.10;;
16731;SDS011;8484;50.904;9.192;2023-05-07T08:44:19;23.60;;;21.90;;
16731;SDS011;8484;50.904;9.192;2023-05-07T08:46:53;23.23;;;21.63;;
16731;SDS011;8484;50.904;9.192;2023-05-07T08:49:33;24.30;;;22.60;;
16731;SDS011;8484;50.904;9.192;2023-05-07T08:52:07;24.50;;;22.80;;
16731;SDS011;8484;50.904;9.192;2023-05-07T08:54:43;23.63;;;21.97;;
16731;SDS011;8484;50.904;9.192;2023-05-07T08:57:13;25.63;;;23.63;;
16731;SDS011;8484;50.904;9.192;2023-05-07T08:59:44;23.40;;;21.80;;
16731;SDS011;8484;50.904;9.192;2023-05-07T09:02:11;23.30;;;21.70;;
16731;SDS011;8484;50.904;9.192;2023-05-07T09:04:40;23.27;;;21.67;;
16731;SDS011;8484;50.904;9.192;2023-05-07T09:07:07;21.47;;;19.80;;
16731;SDS011;8484;50.904;9.192;2023-05-07T09:09:34;21.90;;;20.23;;
16731;SDS011;8484;50.904;9.192;2023-05-07T09:12:00;22.10;;;20.50;;
16731;SDS011;8484;50.904;9.192;2023-05-07T09:14:28;20.10;;;18.60;;
16731;SDS011;8484;50.904;9.192;2023-05-07T09:16:55;20.27;;;18.77;;
16731;SDS011;8484;50.904;9.192;2023-05-07T09:19:23;17.90;;;16.60;;
16731;SDS011;8484;50.904;9.192;2023-05-07T09:21:58;17.37;;;16.17;;
16731;SDS011;8484;50.904;9.192;2023-05-07T09:24:26;17.20;;;15.90;;
16731;SDS011;8484;50.904;9.192;2023-05-07T09:26:53;16.17;;;15.07;;
16731;SDS011;8484;50.904;9.192;2023-05-07T09:29:21;15.33;;;14.23;;
16731;SDS011;8484;50.904;9.192;2023-05-07T09:31:48;15.47;;;14.27;;
16731;SDS011;8484;50.904;9.192;2023-05-07T09:34:15;14.63;;;13.53;;
16731;SDS011;8484;50.904;9.192;2023-05-07T09:36:43;14.93;;;13.93;;
16731;SDS011;8484;50.904;9.192;2023-05-07T09:39:11;15.97;;;14.67;;
16731;SDS011;8484;50.904;9.192;2023-05-07T09:41:48;14.73;;;13.63;;
16731;SDS011;8484;50.904;9.192;2023-05-07T09:44:16;13.40;;;12.50;;
16731;SDS011;8484;50.904;9.192;2023-05-07T09:46:43;13.70;;;12.70;;
16731;SDS011;8484;50.904;9.192;2023-05-07T09:49:14;13.33;;;12.43;;
16731;SDS011;8484;50.904;9.192;2023-05-07T09:51:47;12.73;;;11.83;;
16731;SDS011;8484;50.904;9.192;2023-05-07T09:54:18;13.70;;;12.60;;
16731;SDS011;8484;50.904;9.192;2023-05-07T09:56:45;13.83;;;12.73;;
16731;SDS011;8484;50.904;9.192;2023-05-07T09:59:14;14.93;;;13.73;;
16731;SDS011;8484;50.904;9.192;2023-05-07T10:01:42;14.80;;;13.60;;
16731;SDS011;8484;50.904;9.192;2023-05-07T10:04:10;14.70;;;13.70;;
16731;SDS011;8484;50.904;9.192;2023-05-07T10:06:38;15.90;;;14.80;;
16731;SDS011;8484;50.904;9.192;2023-05-07T10:09:06;14.47;;;13.37;;
16731;SDS011;8484;50.904;9.192;2023-05-07T10:11:35;14.57;;;13.50;;
16731;SDS011;8484;50.904;9.192;2023-05-07T10:14:02;14.23;;;13.23;;
16731;SDS011;8484;50.904;9.192;2023-05-07T10:16:31;13.40;;;12.40;;
16731;SDS011;8484;50.904;9.192;2023-05-07T10:19:02;12.23;;;11.30;;
16731;SDS011;8484;50.904;9.192;2023-05-07T10:21:29;12.00;;;11.10;;
16731;SDS011;8484;50.904;9.192;2023-05-07T10:23:59;11.77;;;10.97;;
16731;SDS011;8484;50.904;9.192;2023-05-07T10:26:31;11.37;;;10.57;;
16731;SDS011;8484;50.904;9.192;2023-05-07T10:29:02;11.30;;;10.50;;
16731;SDS011;8484;50.904;9.192;2023-05-07T10:31:37;12.57;;;11.67;;
16731;SDS011;8484;50.904;9.192;2023-05-07T10:34:16;13.00;;;12.10;;
16731;SDS011;8484;50.904;9.192;2023-05-07T10:36:47;13.30;;;12.40;;
16731;SDS011;8484;50.904;9.192;2023-05-07T10:39:16;11.80;;;11.00;;
16731;SDS011;8484;50.904;9.192;2023-05-07T10:41:43;12.50;;;11.70;;
16731;SDS011;8484;50.904;9.192;2023-05-07T10:44:12;12.67;;;11.77;;
16731;SDS011;8484;50.904;9.192;2023-05-07T10:47:03;13.30;;;12.40;;
16731;SDS011;8484;50.904;9.192;2023-05-07T10:49:33;12.60;;;11.70;;
16731;SDS011;8484;50.904;9.192;2023-05-07T10:52:14;13.50;;;12.60;;
16731;SDS011;8484;50.904;9.192;2023-05-07T10:54:42;12.73;;;11.93;;
16731;SDS011;8484;50.904;9.192;2023-05-07T11:00:00;13.20;;;12.30;;
16731;SDS011;8484;50.904;9.192;2023-05-07T11:05:30;12.60;;;11.80;;
16731;SDS011;8484;50.904;9.192;2023-05-07T11:07:59;13.70;;;12.80;;
16731;SDS011;8484;50.904;9.192;2023-05-07T11:13:15;14.00;;;13.10;;
16731;SDS011;8484;50.904;9.192;2023-05-07T11:15:45;13.93;;;13.03;;
16731;SDS011;8484;50.904;9.192;2023-05-07T11:18:13;11.70;;;11.00;;
16731;SDS011;8484;50.904;9.192;2023-05-07T11:20:45;11.40;;;10.70;;
16731;SDS011;8484;50.904;9.192;2023-05-07T11:26:21;11.93;;;11.23;;
16731;SDS011;8484;50.904;9.192;2023-05-07T11:28:48;12.33;;;11.53;;
16731;SDS011;8484;50.904;9.192;2023-05-07T11:31:20;11.63;;;10.93;;
16731;SDS011;8484;50.904;9.192;2023-05-07T11:33:49;11.97;;;11.07;;
16731;SDS011;8484;50.904;9.192;2023-05-07T11:36:16;11.33;;;10.63;;
16731;SDS011;8484;50.904;9.192;2023-05-07T11:38:44;10.67;;;10.03;;
16731;SDS011;8484;50.904;9.192;2023-05-07T11:41:11;10.97;;;10.27;;
16731;SDS011;8484;50.904;9.192;2023-05-07T11:43:38;10.10;;;9.50;;
16731;SDS011;8484;50.904;9.192;2023-05-07T11:46:20;11.50;;;10.80;;
16731;SDS011;8484;50.904;9.192;2023-05-07T11:48:47;10.40;;;9.80;;
16731;SDS011;8484;50.904;9.192;2023-05-07T11:51:16;10.10;;;9.50;;
16731;SDS011;8484;50.904;9.192;2023-05-07T11:53:45;10.40;;;9.80;;
16731;SDS011;8484;50.904;9.192;2023-05-07T11:56:12;11.20;;;10.50;;
16731;SDS011;8484;50.904;9.192;2023-05-07T11:58:40;11.13;;;10.33;;
16731;SDS011;8484;50.904;9.192;2023-05-07T12:01:14;11.73;;;10.83;;
16731;SDS011;8484;50.904;9.192;2023-05-07T12:03:44;11.00;;;10.30;;
16731;SDS011;8484;50.904;9.192;2023-05-07T12:06:12;11.53;;;10.83;;
16731;SDS011;8484;50.904;9.192;2023-05-07T12:08:41;12.07;;;11.27;;
16731;SDS011;8484;50.904;9.192;2023-05-07T12:11:09;12.30;;;11.50;;
16731;SDS011;8484;50.904;9.192;2023-05-07T12:13:40;12.43;;;11.70;;
16731;SDS011;8484;50.904;9.192;2023-05-07T12:16:08;13.13;;;12.23;;
16731;SDS011;8484;50.904;9.192;2023-05-07T12:18:35;11.80;;;11.00;;
16731;SDS011;8484;50.904;9.192;2023-05-07T12:21:05;11.50;;;10.80;;
16731;SDS011;8484;50.904;9.192;2023-05-07T12:23:33;11.70;;;10.90;;
16731;SDS011;8484;50.904;9.192;2023-05-07T12:26:01;11.90;;;11.20;;
16731;SDS011;8484;50.904;9.192;2023-05-07T12:28:29;12.00;;;11.30;;
16731;SDS011;8484;50.904;9.192;2023-05-07T12:30:57;11.60;;;10.90;;
16731;SDS011;8484;50.904;9.192;2023-05-07T12:33:24;11.93;;;11.13;;
16731;SDS011;8484;50.904;9.192;2023-05-07T12:35:54;12.20;;;11.20;;
16731;SDS011;8484;50.904;9.192;2023-05-07T12:38:23;12.00;;;11.30;;
16731;SDS011;8484;50.904;9.192;2023-05-07T12:40:50;11.40;;;10.70;;
16731;SDS011;8484;50.904;9.192;2023-05-07T12:43:20;11.43;;;10.73;;
16731;SDS011;8484;50.904;9.192;2023-05-07T12:45:50;10.93;;;10.23;;
16731;SDS011;8484;50.904;9.192;2023-05-07T12:48:17;12.47;;;11.77;;
16731;SDS011;8484;50.904;9.192;2023-05-07T12:50:48;12.97;;;12.17;;
16731;SDS011;8484;50.904;9.192;2023-05-07T12:53:16;12.70;;;11.90;;
16731;SDS011;8484;50.904;9.192;2023-05-07T12:55:45;11.80;;;11.10;;
16731;SDS011;8484;50.904;9.192;2023-05-07T12:58:15;12.27;;;11.57;;
16731;SDS011;8484;50.904;9.192;2023-05-07T13:00:43;12.00;;;11.20;;
16731;SDS011;8484;50.904;9.192;2023-05-07T13:03:11;11.53;;;10.83;;
16731;SDS011;8484;50.904;9.192;2023-05-07T13:05:38;11.67;;;10.97;;
16731;SDS011;8484;50.904;9.192;2023-05-07T13:08:05;12.20;;;11.27;;
16731;SDS011;8484;50.904;9.192;2023-05-07T13:10:34;11.47;;;10.77;;
16731;SDS011;8484;50.904;9.192;2023-05-07T13:13:02;11.00;;;10.30;;
16731;SDS011;8484;50.904;9.192;2023-05-07T13:15:29;10.80;;;10.20;;
16731;SDS011;8484;50.904;9.192;2023-05-07T13:17:56;11.97;;;11.10;;
16731;SDS011;8484;50.904;9.192;2023-05-07T13:20:23;10.87;;;10.17;;
16731;SDS011;8484;50.904;9.192;2023-05-07T13:22:50;10.70;;;10.10;;
16731;SDS011;8484;50.904;9.192;2023-05-07T13:25:17;11.70;;;10.80;;
16731;SDS011;8484;50.904;9.192;2023-05-07T13:27:45;11.53;;;10.73;;
16731;SDS011;8484;50.904;9.192;2023-05-07T13:30:13;11.57;;;10.87;;
16731;SDS011;8484;50.904;9.192;2023-05-07T13:32:40;11.40;;;10.70;;
16731;SDS011;8484;50.904;9.192;2023-05-07T13:35:07;11.73;;;11.03;;
16731;SDS011;8484;50.904;9.192;2023-05-07T13:37:34;12.00;;;11.30;;
16731;SDS011;8484;50.904;9.192;2023-05-07T13:40:01;12.23;;;11.50;;
16731;SDS011;8484;50.904;9.192;2023-05-07T13:42:29;12.40;;;11.70;;
16731;SDS011;8484;50.904;9.192;2023-05-07T13:44:56;12.83;;;12.03;;
16731;SDS011;8484;50.904;9.192;2023-05-07T13:47:25;13.53;;;12.73;;
16731;SDS011;8484;50.904;9.192;2023-05-07T13:49:51;12.67;;;11.87;;
16731;SDS011;8484;50.904;9.192;2023-05-07T13:52:18;13.73;;;12.93;;
16731;SDS011;8484;50.904;9.192;2023-05-07T13:54:46;13.10;;;12.30;;
16731;SDS011;8484;50.904;9.192;2023-05-07T13:57:13;13.20;;;12.40;;
16731;SDS011;8484;50.904;9.192;2023-05-07T13:59:40;12.70;;;11.90;;
16731;SDS011;8484;50.904;9.192;2023-05-07T14:02:07;13.77;;;12.97;;
16731;SDS011;8484;50.904;9.192;2023-05-07T14:04:36;13.70;;;12.90;;
16731;SDS011;8484;50.904;9.192;2023-05-07T14:07:04;13.43;;;12.63;;
16731;SDS011;8484;50.904;9.192;2023-05-07T14:09:31;13.30;;;12.50;;
16731;SDS011;8484;50.904;9.192;2023-05-07T14:11:58;13.60;;;12.80;;
16731;SDS011;8484;50.904;9.192;2023-05-07T14:14:26;14.33;;;13.27;;
16731;SDS011;8484;50.904;9.192;2023-05-07T14:16:53;14.83;;;13.93;;
16731;SDS011;8484;50.904;9.192;2023-05-07T14:19:20;13.73;;;12.83;;
16731;SDS011;8484;50.904;9.192;2023-05-07T14:21:49;13.77;;;12.97;;
16731;SDS011;8484;50.904;9.192;2023-05-07T14:24:16;13.97;;;13.07;;
16731;SDS011;8484;50.904;9.192;2023-05-07T14:26:43;13.97;;;13.17;;
16731;SDS011;8484;50.904;9.192;2023-05-07T14:29:10;14.90;;;13.90;;
16731;SDS011;8484;50.904;9.192;2023-05-07T14:31:38;15.20;;;14.00;;
16731;SDS011;8484;50.904;9.192;2023-05-07T14:34:12;14.43;;;13.63;;
16731;SDS011;8484;50.904;9.192;2023-05-07T14:36:39;17.70;;;16.60;;
16731;SDS011;8484;50.904;9.192;2023-05-07T14:39:08;19.83;;;18.53;;
16731;SDS011;8484;50.904;9.192;2023-05-07T14:41:35;18.80;;;17.70;;
16731;SDS011;8484;50.904;9.192;2023-05-07T14:44:02;16.97;;;15.97;;
16731;SDS011;8484;50.904;9.192;2023-05-07T14:46:29;19.90;;;18.53;;
16731;SDS011;8484;50.904;9.192;2023-05-07T14:48:56;17.33;;;16.23;;
16731;SDS011;8484;50.904;9.192;2023-05-07T14:51:23;17.47;;;16.37;;
16731;SDS011;8484;50.904;9.192;2023-05-07T14:53:50;17.40;;;16.40;;